In Rescue
 
Open Full Screen Window  High Contrast Mode
Wind Gusting 00 knots
07
June 22, 2024 8:05 PM CDT
Weather Information
Wind Direction
  310 °
Wind Speed
  07 kt (8 mph)
Wind Gust
  00 kt (0 mph)
Altimeter
29.74 in
Visibility
10 SM
Temperature
22° C
72° F
Dewpoint
22° C
72° F
Humidity
100%
Sky Condition
Broken @ 4,100 ft
Scattered @ 3,100 ft
VFR

METAR KFKA 230105Z AUTO 31007KT 10SM SCT031 BKN041 22/22 A2974 RMK AO2

FAA Disclaimer: The data displayed is for advisory purposes only and is not to be used for flight planning or operations.